Time;durP1;ratioP1;P1;durP2;ratioP2;P2;SDS_P1;SDS_P2;PMS_P1;PMS_P2;Temp;Humidity;BMP_temperature;BMP_pressure;BME280_temperature;BME280_humidity;BME280_pressure;Samples;Min_cycle;Max_cycle;Signal;HPM_P1;HPM_P2
2022/04/14 00:00:58;;;;;;;39.55;27.55;;;;;;;;;;4966552;28;20225;-63
2022/04/14 00:03:23;;;;;;;42.80;28.15;;;;;;;;;;4978164;28;20221;-63
2022/04/14 00:05:49;;;;;;;41.05;27.15;;;;;;;;;;4984531;28;21014;-63
2022/04/14 00:08:14;;;;;;;39.30;27.42;;;;;;;;;;4979007;28;20243;-63
2022/04/14 00:10:39;;;;;;;34.50;25.33;;;;;;;;;;4977075;28;20228;-64
2022/04/14 00:13:05;;;;;;;38.22;27.35;;;;;;;;;;4976156;28;20320;-64
2022/04/14 00:15:30;;;;;;;26.60;20.95;;;;;;;;;;4982124;28;20254;-63
2022/04/14 00:17:55;;;;;;;27.15;20.75;;;;;;;;;;4984390;28;20213;-64
2022/04/14 00:20:20;;;;;;;28.33;21.67;;;;;;;;;;4983547;28;20220;-64
2022/04/14 00:22:46;;;;;;;40.78;24.95;;;;;;;;;;4984814;28;20213;-64
2022/04/14 00:25:11;;;;;;;53.33;30.05;;;;;;;;;;4981153;28;20272;-64
2022/04/14 00:27:37;;;;;;;47.65;27.23;;;;;;;;;;4977518;28;20212;-63
2022/04/14 00:30:03;;;;;;;52.85;27.23;;;;;;;;;;4981301;28;20373;-63
2022/04/14 00:32:28;;;;;;;53.38;26.92;;;;;;;;;;4976897;28;20211;-64
2022/04/14 00:34:53;;;;;;;40.78;26.80;;;;;;;;;;4975713;28;20248;-64
2022/04/14 00:37:18;;;;;;;42.13;27.50;;;;;;;;;;4978823;28;20220;-63
2022/04/14 00:39:44;;;;;;;43.00;27.75;;;;;;;;;;4984169;28;20220;-63
2022/04/14 00:42:10;;;;;;;46.35;29.55;;;;;;;;;;4983412;28;21167;-64
2022/04/14 00:44:35;;;;;;;43.30;27.70;;;;;;;;;;4984087;28;20720;-63
2022/04/14 00:47:00;;;;;;;48.80;30.70;;;;;;;;;;4982182;28;20584;-62
2022/04/14 00:49:26;;;;;;;49.08;30.55;;;;;;;;;;4982206;28;20212;-63
2022/04/14 00:51:51;;;;;;;50.42;32.33;;;;;;;;;;4965307;28;20390;-64
2022/04/14 00:54:16;;;;;;;50.47;31.45;;;;;;;;;;4956713;28;20600;-63
2022/04/14 00:56:41;;;;;;;49.30;34.63;;;;;;;;;;4956616;28;20300;-63
2022/04/14 00:59:07;;;;;;;86.00;36.88;;;;;;;;;;4958338;28;20900;-63
2022/04/14 01:01:32;;;;;;;54.50;36.67;;;;;;;;;;4963454;28;20275;-63
2022/04/14 01:03:58;;;;;;;116.60;36.78;;;;;;;;;;4964619;28;20226;-63
2022/04/14 01:06:23;;;;;;;83.55;37.80;;;;;;;;;;4981747;28;20239;-63
2022/04/14 01:11:33;;;;;;;57.28;36.75;;;;;;;;;;4983356;28;20248;-63
2022/04/14 01:13:59;;;;;;;63.65;36.00;;;;;;;;;;4983851;28;20217;-63
2022/04/14 01:16:24;;;;;;;52.35;36.47;;;;;;;;;;4976145;28;20267;-63
2022/04/14 01:18:49;;;;;;;55.15;36.63;;;;;;;;;;4975324;28;20236;-63
2022/04/14 01:21:14;;;;;;;70.90;37.38;;;;;;;;;;4975611;28;20221;-63
2022/04/14 01:23:42;;;;;;;63.72;38.67;;;;;;;;;;4981105;28;20306;-63
2022/04/14 01:26:07;;;;;;;91.07;40.40;;;;;;;;;;4980820;28;20213;-63
2022/04/14 01:28:33;;;;;;;63.85;40.67;;;;;;;;;;4964537;28;20210;-63
2022/04/14 01:30:58;;;;;;;64.35;40.67;;;;;;;;;;4963813;28;20549;-63
2022/04/14 01:33:23;;;;;;;71.85;42.05;;;;;;;;;;4963833;28;20228;-63
2022/04/14 01:35:48;;;;;;;132.20;40.90;;;;;;;;;;4964245;28;20300;-63
2022/04/14 01:38:14;;;;;;;299.48;44.22;;;;;;;;;;4959758;28;20217;-63
2022/04/14 01:40:39;;;;;;;73.72;41.70;;;;;;;;;;4956766;28;20249;-63
2022/04/14 01:43:04;;;;;;;99.05;41.58;;;;;;;;;;4956034;28;20210;-63
2022/04/14 01:45:30;;;;;;;60.55;40.40;;;;;;;;;;4959262;28;20220;-62
2022/04/14 01:47:55;;;;;;;59.25;40.40;;;;;;;;;;4964198;28;20221;-63
2022/04/14 01:50:20;;;;;;;65.78;41.38;;;;;;;;;;4963441;28;20225;-63
2022/04/14 01:52:46;;;;;;;82.85;40.00;;;;;;;;;;4963569;28;20228;-63
2022/04/14 01:55:11;;;;;;;76.10;39.33;;;;;;;;;;4982124;28;20228;-63
2022/04/14 01:57:36;;;;;;;73.30;41.67;;;;;;;;;;4979617;28;20555;-63
2022/04/14 02:00:03;;;;;;;71.07;41.47;;;;;;;;;;4976747;28;20211;-63
2022/04/14 02:02:28;;;;;;;58.53;41.42;;;;;;;;;;4956867;28;20205;-63
2022/04/14 02:04:53;;;;;;;62.90;42.47;;;;;;;;;;4973245;28;20279;-63
2022/04/14 02:07:19;;;;;;;62.35;41.53;;;;;;;;;;4975619;28;20232;-63
2022/04/14 02:09:44;;;;;;;57.03;40.85;;;;;;;;;;4982312;28;20237;-63
2022/04/14 02:12:11;;;;;;;98.70;42.28;;;;;;;;;;4981870;28;20213;-63
2022/04/14 02:14:36;;;;;;;100.57;41.75;;;;;;;;;;4982115;28;20291;-63
2022/04/14 02:17:02;;;;;;;105.05;41.67;;;;;;;;;;4982014;28;20636;-63
2022/04/14 02:19:27;;;;;;;362.00;44.67;;;;;;;;;;4982303;28;20906;-63
2022/04/14 02:21:52;;;;;;;117.18;38.63;;;;;;;;;;4982447;28;20744;-63
2022/04/14 02:24:18;;;;;;;218.35;40.10;;;;;;;;;;4976881;28;20221;-63
2022/04/14 02:26:43;;;;;;;271.40;43.17;;;;;;;;;;4968219;28;20205;-63
2022/04/14 02:29:08;;;;;;;133.38;37.45;;;;;;;;;;4955815;28;20956;-63
2022/04/14 02:31:34;;;;;;;89.40;37.90;;;;;;;;;;4979511;28;21144;-63
2022/04/14 02:33:59;;;;;;;67.50;35.17;;;;;;;;;;4982130;28;20213;-63
2022/04/14 02:36:24;;;;;;;120.60;37.30;;;;;;;;;;4980534;28;20209;-63
2022/04/14 02:38:49;;;;;;;55.40;35.25;;;;;;;;;;4982964;28;20216;-63
2022/04/14 02:41:15;;;;;;;116.50;34.00;;;;;;;;;;4981520;28;20221;-63
2022/04/14 02:43:40;;;;;;;84.28;33.72;;;;;;;;;;4982673;28;20268;-63
2022/04/14 02:46:05;;;;;;;79.63;34.35;;;;;;;;;;4979558;28;20224;-63
2022/04/14 02:48:31;;;;;;;75.78;33.10;;;;;;;;;;4974128;28;20672;-63
2022/04/14 02:50:56;;;;;;;67.90;33.80;;;;;;;;;;4974591;28;20210;-63
2022/04/14 02:53:22;;;;;;;71.13;32.78;;;;;;;;;;4976364;28;20216;-63
2022/04/14 02:55:47;;;;;;;58.30;32.88;;;;;;;;;;4980765;28;20271;-63
2022/04/14 02:58:12;;;;;;;74.63;33.58;;;;;;;;;;4973975;28;20555;-63
2022/04/14 03:00:38;;;;;;;98.53;33.17;;;;;;;;;;4967229;28;20695;-64
2022/04/14 03:03:03;;;;;;;56.40;32.15;;;;;;;;;;4961885;28;20268;-63
2022/04/14 03:05:28;;;;;;;39.08;31.60;;;;;;;;;;4963270;28;20254;-63
2022/04/14 03:07:53;;;;;;;43.42;32.38;;;;;;;;;;4963245;28;20218;-63
2022/04/14 03:10:19;;;;;;;43.00;32.55;;;;;;;;;;4957812;28;20213;-63
2022/04/14 03:12:46;;;;;;;50.85;32.42;;;;;;;;;;4977981;28;20636;-63
2022/04/14 03:15:12;;;;;;;50.05;31.67;;;;;;;;;;4977565;28;20279;-63
2022/04/14 03:17:37;;;;;;;48.35;32.28;;;;;;;;;;4985046;28;20598;-63
2022/04/14 03:20:03;;;;;;;78.55;33.55;;;;;;;;;;4985319;28;20217;-63
2022/04/14 03:22:32;;;;;;;65.75;33.38;;;;;;;;;;4985097;28;20633;-63
2022/04/14 03:24:57;;;;;;;46.65;33.67;;;;;;;;;;4985906;28;20233;-63
2022/04/14 03:27:23;;;;;;;39.17;32.38;;;;;;;;;;4973593;28;20210;-63
2022/04/14 03:29:48;;;;;;;42.15;33.88;;;;;;;;;;4966248;28;20265;-63
2022/04/14 03:32:13;;;;;;;43.70;34.45;;;;;;;;;;4960944;28;20241;-63
2022/04/14 03:34:38;;;;;;;53.88;38.50;;;;;;;;;;4958519;28;20264;-63
2022/04/14 03:37:04;;;;;;;60.00;40.00;;;;;;;;;;4957736;28;20221;-63
2022/04/14 03:39:29;;;;;;;59.50;40.03;;;;;;;;;;4963662;28;21152;-63
2022/04/14 03:41:54;;;;;;;60.00;41.72;;;;;;;;;;4966565;28;20225;-63
2022/04/14 03:44:20;;;;;;;59.78;40.67;;;;;;;;;;4965150;28;20225;-63
2022/04/14 03:46:45;;;;;;;65.65;43.72;;;;;;;;;;4966502;28;20220;-63
2022/04/14 03:49:11;;;;;;;66.43;44.80;;;;;;;;;;4965699;28;20248;-63
2022/04/14 03:51:37;;;;;;;72.70;47.72;;;;;;;;;;4984585;28;20216;-63
2022/04/14 03:54:03;;;;;;;80.25;48.47;;;;;;;;;;4981523;28;20233;-63
2022/04/14 03:56:28;;;;;;;118.15;49.38;;;;;;;;;;4977670;28;20217;-63
2022/04/14 03:58:54;;;;;;;87.40;48.35;;;;;;;;;;4962882;28;20238;-63
2022/04/14 04:01:20;;;;;;;82.72;47.95;;;;;;;;;;4960498;28;20224;-63
2022/04/14 04:03:45;;;;;;;85.03;47.75;;;;;;;;;;4966093;28;20232;-62
2022/04/14 04:06:10;;;;;;;71.15;46.72;;;;;;;;;;4964662;28;20521;-62
2022/04/14 04:08:36;;;;;;;80.25;43.60;;;;;;;;;;4966016;28;20265;-62
2022/04/14 04:11:01;;;;;;;79.18;44.28;;;;;;;;;;4965344;28;20216;-63
2022/04/14 04:13:26;;;;;;;99.45;39.58;;;;;;;;;;4978302;28;20228;-63
2022/04/14 04:15:52;;;;;;;69.78;38.92;;;;;;;;;;4984688;28;20224;-62
2022/04/14 04:18:17;;;;;;;111.32;38.42;;;;;;;;;;4977317;28;20326;-62
2022/04/14 04:20:42;;;;;;;57.38;38.20;;;;;;;;;;4975558;28;20205;-61
2022/04/14 04:23:07;;;;;;;61.35;39.25;;;;;;;;;;4976840;28;20344;-62
2022/04/14 04:25:33;;;;;;;62.92;40.55;;;;;;;;;;4982543;28;20217;-63
2022/04/14 04:27:58;;;;;;;54.65;39.38;;;;;;;;;;4969290;28;20340;-63
2022/04/14 04:30:24;;;;;;;67.65;42.85;;;;;;;;;;4965290;28;20260;-62
2022/04/14 04:32:49;;;;;;;54.67;37.60;;;;;;;;;;4965083;28;20783;-63
2022/04/14 04:35:15;;;;;;;75.43;42.40;;;;;;;;;;4965320;28;20584;-63
2022/04/14 04:37:41;;;;;;;66.20;42.97;;;;;;;;;;4965660;28;20209;-62
2022/04/14 04:40:06;;;;;;;81.90;42.72;;;;;;;;;;4978874;28;20443;-62
2022/04/14 04:42:31;;;;;;;67.80;42.35;;;;;;;;;;4976852;28;20316;-63
2022/04/14 04:44:57;;;;;;;53.42;38.97;;;;;;;;;;4976299;28;20596;-63
2022/04/14 04:47:22;;;;;;;71.85;40.00;;;;;;;;;;4980108;28;20742;-63
2022/04/14 04:49:47;;;;;;;68.53;37.90;;;;;;;;;;4984568;28;20209;-62
2022/04/14 04:52:13;;;;;;;58.13;38.33;;;;;;;;;;4983641;28;20219;-63
2022/04/14 04:54:38;;;;;;;100.55;42.47;;;;;;;;;;4983465;28;20232;-63
2022/04/14 04:57:04;;;;;;;61.22;39.03;;;;;;;;;;4983955;28;20217;-63
2022/04/14 04:59:29;;;;;;;55.40;37.63;;;;;;;;;;4967219;28;20798;-63
2022/04/14 05:01:54;;;;;;;75.93;38.85;;;;;;;;;;4962413;28;20780;-63
2022/04/14 05:04:20;;;;;;;50.15;33.45;;;;;;;;;;4956895;28;20545;-63
2022/04/14 05:06:45;;;;;;;74.80;41.00;;;;;;;;;;4957197;28;20213;-63
2022/04/14 05:09:10;;;;;;;75.55;41.30;;;;;;;;;;4957000;28;20218;-62
2022/04/14 05:11:36;;;;;;;81.03;42.88;;;;;;;;;;4965470;28;20202;-63
2022/04/14 05:14:01;;;;;;;49.97;34.47;;;;;;;;;;4981618;28;20239;-63
2022/04/14 05:16:27;;;;;;;94.63;41.00;;;;;;;;;;4983453;28;20244;-63
2022/04/14 05:18:52;;;;;;;51.70;35.47;;;;;;;;;;4964888;28;20221;-63
2022/04/14 05:21:17;;;;;;;94.68;35.65;;;;;;;;;;4964483;28;20221;-64
2022/04/14 05:23:43;;;;;;;63.92;36.33;;;;;;;;;;4963896;28;20218;-63
2022/04/14 05:26:08;;;;;;;52.10;35.05;;;;;;;;;;4958823;28;20257;-64
2022/04/14 05:28:33;;;;;;;46.28;36.95;;;;;;;;;;4975592;28;20507;-63
2022/04/14 05:30:59;;;;;;;47.92;34.85;;;;;;;;;;4976062;28;20220;-63
2022/04/14 05:33:24;;;;;;;46.63;36.28;;;;;;;;;;4980545;28;20243;-64
2022/04/14 05:35:49;;;;;;;61.92;37.88;;;;;;;;;;4983111;28;20209;-63
2022/04/14 05:38:15;;;;;;;61.47;36.22;;;;;;;;;;4983610;28;20224;-63
2022/04/14 05:40:41;;;;;;;102.18;33.97;;;;;;;;;;4983385;28;20296;-64
2022/04/14 05:43:16;;;;;;;50.90;35.40;;;;;;;;;;4982871;28;20308;-61
2022/04/14 05:45:44;;;;;;;46.88;33.22;;;;;;;;;;4983351;28;20228;-62
2022/04/14 05:48:10;;;;;;;76.93;36.95;;;;;;;;;;4968190;28;20225;-75
2022/04/14 05:50:35;;;;;;;66.50;36.78;;;;;;;;;;4974563;28;20251;-62
2022/04/14 05:53:01;;;;;;;61.22;37.05;;;;;;;;;;4962525;28;20232;-60
2022/04/14 05:55:26;;;;;;;78.38;38.53;;;;;;;;;;4960707;28;20229;-61
2022/04/14 05:57:51;;;;;;;68.53;45.27;;;;;;;;;;4962309;28;20433;-63
2022/04/14 06:00:16;;;;;;;60.13;39.53;;;;;;;;;;4964548;28;20202;-63
2022/04/14 06:02:42;;;;;;;56.67;38.47;;;;;;;;;;4964023;28;20224;-64
2022/04/14 06:05:07;;;;;;;74.35;38.13;;;;;;;;;;4962901;28;20303;-65
2022/04/14 06:07:33;;;;;;;47.72;32.80;;;;;;;;;;4982222;28;20294;-64
2022/04/14 06:09:58;;;;;;;43.95;32.67;;;;;;;;;;4963347;28;20309;-63
2022/04/14 06:12:23;;;;;;;59.15;33.97;;;;;;;;;;4956364;28;20213;-67
2022/04/14 06:14:49;;;;;;;42.95;31.13;;;;;;;;;;4956683;28;20294;-65
2022/04/14 06:17:15;;;;;;;44.50;33.80;;;;;;;;;;4974092;28;20247;-66
2022/04/14 06:19:40;;;;;;;49.75;34.78;;;;;;;;;;4982469;28;20608;-66
2022/04/14 06:22:05;;;;;;;49.33;36.20;;;;;;;;;;4982768;28;20213;-64
2022/04/14 06:24:31;;;;;;;45.35;33.75;;;;;;;;;;4989177;28;20304;-66
2022/04/14 06:26:56;;;;;;;43.08;31.92;;;;;;;;;;4990638;28;20216;-64
2022/04/14 06:29:21;;;;;;;55.67;36.72;;;;;;;;;;4992669;28;20213;-65
2022/04/14 06:31:47;;;;;;;51.05;35.80;;;;;;;;;;4992868;28;20217;-65
2022/04/14 06:34:12;;;;;;;48.67;34.28;;;;;;;;;;4991279;28;20209;-65
2022/04/14 06:36:37;;;;;;;18.90;14.20;;;;;;;;;;4991725;28;20668;-66
2022/04/14 06:39:03;;;;;;;48.50;39.17;;;;;;;;;;4986688;28;20433;-63
2022/04/14 06:41:28;;;;;;;42.35;31.95;;;;;;;;;;4991495;28;20661;-62
2022/04/14 06:43:54;;;;;;;41.45;31.90;;;;;;;;;;4993445;28;20739;-62
2022/04/14 06:46:19;;;;;;;40.45;31.40;;;;;;;;;;4995606;28;20220;-62
2022/04/14 06:48:45;;;;;;;37.65;30.33;;;;;;;;;;4996653;28;20557;-62
2022/04/14 06:51:10;;;;;;;40.97;31.83;;;;;;;;;;4996279;28;20205;-62
2022/04/14 06:53:36;;;;;;;38.25;29.98;;;;;;;;;;4995910;28;20217;-62
2022/04/14 06:56:01;;;;;;;41.53;32.67;;;;;;;;;;4995676;28;20224;-72
2022/04/14 06:58:27;;;;;;;40.15;31.25;;;;;;;;;;4996467;28;20209;-65
2022/04/14 07:00:52;;;;;;;37.47;29.45;;;;;;;;;;5006043;28;20213;-73
2022/04/14 07:03:21;;;;;;;37.17;30.25;;;;;;;;;;4995451;28;20236;-71
2022/04/14 07:05:47;;;;;;;37.30;29.55;;;;;;;;;;4993846;28;20213;-68
2022/04/14 07:08:12;;;;;;;36.30;28.88;;;;;;;;;;4995092;28;20198;-69
2022/04/14 07:10:38;;;;;;;38.03;28.40;;;;;;;;;;4995442;28;20217;-72
2022/04/14 07:13:04;;;;;;;33.88;27.40;;;;;;;;;;4995314;28;20209;-72
2022/04/14 07:15:29;;;;;;;31.40;26.52;;;;;;;;;;4994918;28;20343;-71
2022/04/14 07:17:54;;;;;;;31.15;25.75;;;;;;;;;;4995877;28;20304;-70
2022/04/14 07:20:19;;;;;;;32.13;24.83;;;;;;;;;;4995206;28;20228;-71
2022/04/14 07:22:45;;;;;;;26.35;22.70;;;;;;;;;;4995086;28;20800;-73
2022/04/14 07:25:11;;;;;;;31.48;23.63;;;;;;;;;;5012633;28;20232;-73
2022/04/14 07:27:36;;;;;;;26.52;22.33;;;;;;;;;;4995810;28;20569;-74
2022/04/14 07:30:01;;;;;;;27.42;22.02;;;;;;;;;;4994489;28;20766;-70
2022/04/14 07:32:33;;;;;;;25.73;21.83;;;;;;;;;;4995708;28;20213;-71
2022/04/14 07:34:58;;;;;;;24.05;20.77;;;;;;;;;;4995686;28;20227;-75
2022/04/14 07:37:23;;;;;;;26.88;19.80;;;;;;;;;;4994606;28;20296;-72
2022/04/14 07:39:49;;;;;;;25.63;21.10;;;;;;;;;;4995446;28;20303;-73
2022/04/14 07:42:14;;;;;;;23.92;19.73;;;;;;;;;;4994974;28;20567;-72
2022/04/14 07:44:39;;;;;;;23.00;18.42;;;;;;;;;;4994717;28;20684;-74
2022/04/14 07:47:05;;;;;;;23.95;17.63;;;;;;;;;;4995174;28;20623;-71
2022/04/14 07:49:32;;;;;;;23.65;18.92;;;;;;;;;;4994969;28;20237;-74
2022/04/14 07:51:57;;;;;;;21.88;17.50;;;;;;;;;;4995382;28;20213;-73
2022/04/14 07:54:22;;;;;;;25.58;18.90;;;;;;;;;;4994625;28;20316;-71
2022/04/14 07:56:48;;;;;;;19.50;16.73;;;;;;;;;;4993711;28;20296;-72
2022/04/14 07:59:13;;;;;;;20.50;17.08;;;;;;;;;;4994832;28;20216;-71
2022/04/14 08:01:38;;;;;;;20.20;16.80;;;;;;;;;;4995063;28;20209;-71
2022/04/14 08:04:03;;;;;;;22.63;17.15;;;;;;;;;;4993415;28;20369;-69
2022/04/14 08:06:31;;;;;;;19.40;16.10;;;;;;;;;;4994831;28;20205;-70
2022/04/14 08:08:56;;;;;;;19.23;15.40;;;;;;;;;;4995074;28;20225;-69
2022/04/14 08:11:21;;;;;;;19.02;16.77;;;;;;;;;;4993487;28;20325;-68
2022/04/14 08:13:47;;;;;;;20.50;15.20;;;;;;;;;;4995027;28;20209;-70
2022/04/14 08:16:12;;;;;;;17.25;14.60;;;;;;;;;;4994617;28;20237;-69
2022/04/14 08:18:38;;;;;;;17.10;14.30;;;;;;;;;;4994422;28;20213;-69
2022/04/14 08:21:03;;;;;;;16.42;14.45;;;;;;;;;;4994348;28;20573;-70
2022/04/14 08:23:29;;;;;;;18.92;13.48;;;;;;;;;;4995046;28;20209;-70
2022/04/14 08:25:54;;;;;;;21.00;14.13;;;;;;;;;;4994041;28;20292;-70
2022/04/14 08:28:20;;;;;;;15.55;12.75;;;;;;;;;;4994265;28;20213;-68
2022/04/14 08:30:45;;;;;;;19.08;14.00;;;;;;;;;;4994583;28;20584;-69
2022/04/14 08:33:12;;;;;;;16.70;13.38;;;;;;;;;;4993722;28;20209;-68
2022/04/14 08:35:37;;;;;;;20.25;12.95;;;;;;;;;;5009803;28;20263;-67
2022/04/14 08:38:03;;;;;;;17.45;12.95;;;;;;;;;;4993784;28;20982;-65
2022/04/14 08:40:30;;;;;;;18.83;12.43;;;;;;;;;;4993784;28;20229;-68
2022/04/14 08:42:59;;;;;;;17.10;13.07;;;;;;;;;;4993022;28;20673;-62
2022/04/14 08:45:26;;;;;;;15.68;12.25;;;;;;;;;;4992626;28;20348;-61
2022/04/14 08:47:51;;;;;;;17.02;12.52;;;;;;;;;;4992583;28;20213;-61
2022/04/14 08:50:16;;;;;;;17.75;12.40;;;;;;;;;;4994030;28;20560;-62
2022/04/14 08:52:42;;;;;;;16.35;11.27;;;;;;;;;;4993816;28;20672;-61
2022/04/14 08:55:09;;;;;;;16.20;12.30;;;;;;;;;;4993437;28;20295;-62
2022/04/14 08:57:35;;;;;;;19.30;12.65;;;;;;;;;;4993975;28;20212;-61
2022/04/14 09:00:00;;;;;;;18.52;12.02;;;;;;;;;;4992813;28;20233;-63
2022/04/14 09:02:26;;;;;;;16.92;11.20;;;;;;;;;;4994201;28;20225;-61
2022/04/14 09:04:51;;;;;;;15.10;11.50;;;;;;;;;;4993366;28;20308;-61
2022/04/14 09:07:17;;;;;;;16.77;12.10;;;;;;;;;;4993179;28;20213;-61
2022/04/14 09:09:43;;;;;;;15.07;11.55;;;;;;;;;;4994040;28;20274;-62
2022/04/14 09:12:08;;;;;;;13.50;10.25;;;;;;;;;;4976342;28;20720;-62
2022/04/14 09:14:34;;;;;;;15.38;11.13;;;;;;;;;;4972239;28;20218;-62
2022/04/14 09:17:01;;;;;;;16.00;10.88;;;;;;;;;;4974604;28;20213;-61
2022/04/14 09:19:28;;;;;;;16.23;9.63;;;;;;;;;;4973135;28;20213;-61
2022/04/14 09:21:59;;;;;;;15.05;11.02;;;;;;;;;;4973776;28;20268;-61
2022/04/14 09:24:38;;;;;;;16.35;10.00;;;;;;;;;;4973795;28;20221;-61
2022/04/14 09:27:03;;;;;;;13.82;10.23;;;;;;;;;;4973803;28;20225;-61
2022/04/14 09:29:29;;;;;;;13.65;9.13;;;;;;;;;;4973386;28;20209;-61
2022/04/14 09:31:54;;;;;;;12.75;8.77;;;;;;;;;;4974366;28;20348;-61
2022/04/14 09:34:48;;;;;;;12.10;9.60;;;;;;;;;;4974913;28;20214;-61
2022/04/14 09:37:13;;;;;;;13.25;8.15;;;;;;;;;;4992313;28;20213;-61
2022/04/14 09:39:53;;;;;;;11.68;7.45;;;;;;;;;;4988110;28;20225;-61
2022/04/14 09:42:20;;;;;;;14.55;8.63;;;;;;;;;;4972999;28;20222;-62
2022/04/14 09:44:45;;;;;;;13.00;8.25;;;;;;;;;;4972447;28;20225;-61
2022/04/14 09:47:11;;;;;;;12.20;7.78;;;;;;;;;;4988824;28;20205;-61
2022/04/14 09:49:39;;;;;;;12.48;6.72;;;;;;;;;;4986700;28;20214;-61
2022/04/14 09:52:06;;;;;;;10.80;6.45;;;;;;;;;;4973872;28;20670;-62
2022/04/14 09:54:32;;;;;;;9.20;5.95;;;;;;;;;;4973477;28;20305;-61
2022/04/14 09:56:57;;;;;;;9.68;6.32;;;;;;;;;;4973348;28;20230;-62
2022/04/14 09:59:23;;;;;;;11.23;6.25;;;;;;;;;;4990771;28;20704;-61
2022/04/14 10:01:48;;;;;;;11.45;6.15;;;;;;;;;;4993180;28;20699;-62
2022/04/14 10:04:29;;;;;;;12.65;6.70;;;;;;;;;;4992083;28;20595;-61
2022/04/14 10:07:08;;;;;;;10.65;6.50;;;;;;;;;;4993270;28;20209;-61
2022/04/14 10:09:35;;;;;;;12.10;6.50;;;;;;;;;;4991292;28;20560;-61
2022/04/14 10:12:00;;;;;;;14.75;7.90;;;;;;;;;;4992343;28;20237;-61
2022/04/14 10:14:26;;;;;;;11.75;7.07;;;;;;;;;;4992825;28;20251;-62
2022/04/14 10:16:51;;;;;;;11.82;7.30;;;;;;;;;;4991714;28;20301;-61
2022/04/14 10:19:17;;;;;;;10.55;7.45;;;;;;;;;;4991427;28;20213;-61
2022/04/14 10:21:43;;;;;;;11.60;6.93;;;;;;;;;;4992922;28;20226;-61
2022/04/14 10:24:08;;;;;;;11.07;7.10;;;;;;;;;;4987521;28;20275;-61
2022/04/14 10:26:34;;;;;;;10.13;7.03;;;;;;;;;;4993257;28;20220;-61
2022/04/14 10:29:00;;;;;;;12.18;6.53;;;;;;;;;;4991518;28;20240;-61
2022/04/14 10:31:25;;;;;;;14.68;7.03;;;;;;;;;;4991789;28;20359;-61
2022/04/14 10:33:51;;;;;;;11.88;6.75;;;;;;;;;;4992026;28;20315;-61
2022/04/14 10:36:16;;;;;;;11.57;6.40;;;;;;;;;;4991413;28;20304;-61
2022/04/14 10:38:41;;;;;;;12.05;6.20;;;;;;;;;;4990342;28;20213;-61
2022/04/14 10:41:13;;;;;;;10.30;6.43;;;;;;;;;;4991221;28;20209;-61
2022/04/14 10:43:42;;;;;;;11.77;6.70;;;;;;;;;;4993061;28;20672;-61
2022/04/14 10:46:07;;;;;;;12.77;6.55;;;;;;;;;;4991343;28;20224;-61
2022/04/14 10:48:33;;;;;;;11.43;6.78;;;;;;;;;;4992930;28;20209;-60
2022/04/14 10:51:23;;;;;;;11.25;6.93;;;;;;;;;;4993096;28;20619;-61
2022/04/14 10:53:50;;;;;;;9.50;6.88;;;;;;;;;;4991273;28;20700;-62
2022/04/14 10:56:40;;;;;;;12.70;6.57;;;;;;;;;;4992422;28;20213;-60
2022/04/14 10:59:06;;;;;;;12.73;6.47;;;;;;;;;;4992263;28;20301;-61
2022/04/14 11:01:46;;;;;;;11.95;6.10;;;;;;;;;;4991795;28;20284;-61
2022/04/14 11:04:21;;;;;;;9.90;5.53;;;;;;;;;;4992211;28;20692;-60
2022/04/14 11:06:47;;;;;;;10.85;5.72;;;;;;;;;;4991842;28;20217;-61
2022/04/14 11:09:31;;;;;;;12.38;6.25;;;;;;;;;;4991840;28;20296;-61
2022/04/14 11:11:58;;;;;;;9.45;5.57;;;;;;;;;;4992568;28;20213;-61
2022/04/14 11:14:23;;;;;;;10.45;4.80;;;;;;;;;;4991439;28;20221;-61
2022/04/14 11:16:48;;;;;;;10.27;4.20;;;;;;;;;;4991400;28;20221;-61
2022/04/14 11:19:15;;;;;;;8.45;4.00;;;;;;;;;;4992135;28;20217;-61
2022/04/14 11:21:59;;;;;;;9.13;4.40;;;;;;;;;;4991738;28;20249;-60
2022/04/14 11:24:36;;;;;;;9.93;3.80;;;;;;;;;;4991782;28;20210;-61
2022/04/14 11:27:08;;;;;;;9.25;4.32;;;;;;;;;;4992153;28;20221;-61
2022/04/14 11:29:33;;;;;;;7.10;3.53;;;;;;;;;;4993057;28;20226;-61
2022/04/14 11:31:59;;;;;;;7.85;3.42;;;;;;;;;;5014084;28;20212;-61
2022/04/14 11:34:30;;;;;;;12.10;3.80;;;;;;;;;;5011249;28;20207;-60
2022/04/14 11:36:56;;;;;;;7.03;3.70;;;;;;;;;;4976464;28;20218;-61
2022/04/14 11:39:23;;;;;;;8.57;3.28;;;;;;;;;;4975758;28;20210;-61
2022/04/14 11:41:50;;;;;;;6.97;3.53;;;;;;;;;;4990364;28;20218;-61
2022/04/14 11:44:22;;;;;;;9.32;4.05;;;;;;;;;;4990626;28;20312;-61
2022/04/14 11:46:48;;;;;;;8.70;4.20;;;;;;;;;;4990993;28;20233;-61
2022/04/14 11:49:15;;;;;;;8.70;4.07;;;;;;;;;;4975099;28;20272;-61
2022/04/14 11:51:42;;;;;;;11.27;4.40;;;;;;;;;;4976304;28;20214;-61
2022/04/14 11:54:07;;;;;;;10.00;4.28;;;;;;;;;;4975109;28;20242;-61
2022/04/14 11:56:32;;;;;;;8.55;4.40;;;;;;;;;;4975251;28;20556;-61
2022/04/14 11:58:58;;;;;;;8.02;4.57;;;;;;;;;;4990235;28;20333;-61
2022/04/14 12:01:23;;;;;;;10.18;5.38;;;;;;;;;;4994768;28;20217;-61
2022/04/14 12:03:49;;;;;;;8.93;4.93;;;;;;;;;;4994506;28;20225;-61
2022/04/14 12:06:16;;;;;;;8.23;5.25;;;;;;;;;;4994687;28;20638;-61
2022/04/14 12:08:42;;;;;;;7.53;4.57;;;;;;;;;;4993754;28;20268;-61
2022/04/14 12:11:11;;;;;;;11.38;4.90;;;;;;;;;;4992097;28;20699;-61
2022/04/14 12:13:37;;;;;;;9.82;5.13;;;;;;;;;;4992024;28;20209;-61
2022/04/14 12:16:03;;;;;;;9.48;4.90;;;;;;;;;;4994518;28;20213;-62
2022/04/14 12:18:28;;;;;;;7.97;4.68;;;;;;;;;;4994153;28;20563;-60
2022/04/14 12:20:54;;;;;;;9.48;4.90;;;;;;;;;;4995020;28;20215;-61
2022/04/14 12:23:19;;;;;;;9.02;5.03;;;;;;;;;;4994411;28;20209;-61
2022/04/14 12:25:44;;;;;;;10.32;5.28;;;;;;;;;;4994048;28;20229;-61
2022/04/14 12:28:09;;;;;;;8.20;4.70;;;;;;;;;;4994349;28;20348;-61
2022/04/14 12:30:36;;;;;;;6.68;4.38;;;;;;;;;;4993505;28;20557;-61
2022/04/14 12:33:03;;;;;;;8.23;5.20;;;;;;;;;;4992358;28;20209;-61
2022/04/14 12:35:32;;;;;;;10.13;5.28;;;;;;;;;;4994443;28;20216;-60
2022/04/14 12:38:10;;;;;;;9.35;5.40;;;;;;;;;;4993761;28;20205;-60
2022/04/14 12:40:35;;;;;;;10.93;4.88;;;;;;;;;;4992941;28;20259;-61
2022/04/14 12:43:00;;;;;;;10.13;5.35;;;;;;;;;;4993966;28;20314;-61
2022/04/14 12:45:25;;;;;;;8.88;4.32;;;;;;;;;;4992071;28;20253;-61
2022/04/14 12:47:51;;;;;;;6.97;4.43;;;;;;;;;;4994345;28;20217;-61
2022/04/14 12:50:19;;;;;;;9.88;4.57;;;;;;;;;;4993490;28;20684;-61
2022/04/14 12:52:46;;;;;;;7.32;4.20;;;;;;;;;;4993246;28;20579;-78
2022/04/14 12:55:19;;;;;;;7.60;4.00;;;;;;;;;;4992194;28;20773;-72
2022/04/14 12:57:45;;;;;;;7.75;4.05;;;;;;;;;;4993024;28;20201;-74
2022/04/14 13:00:11;;;;;;;7.65;4.45;;;;;;;;;;4991555;28;20225;-73
2022/04/14 13:02:38;;;;;;;11.38;5.15;;;;;;;;;;4993983;28;20618;-77
2022/04/14 13:05:04;;;;;;;8.75;4.65;;;;;;;;;;4993311;28;20644;-74
2022/04/14 13:07:30;;;;;;;6.20;3.92;;;;;;;;;;4991699;28;20607;-75
2022/04/14 13:09:59;;;;;;;8.57;4.00;;;;;;;;;;4992649;28;20213;-73
2022/04/14 13:12:40;;;;;;;6.50;4.10;;;;;;;;;;4993303;28;20209;-72
2022/04/14 13:15:06;;;;;;;7.45;4.25;;;;;;;;;;4991349;28;20699;-75
2022/04/14 13:17:36;;;;;;;7.78;4.30;;;;;;;;;;4993933;28;20213;-72
2022/04/14 13:20:09;;;;;;;5.82;2.90;;;;;;;;;;4992237;28;20605;-75
2022/04/14 13:22:34;;;;;;;5.18;2.97;;;;;;;;;;4992356;28;20216;-74
2022/04/14 13:24:59;;;;;;;7.20;3.50;;;;;;;;;;4993645;28;20315;-74
2022/04/14 13:27:25;;;;;;;7.72;3.20;;;;;;;;;;4992546;28;20283;-72
2022/04/14 13:29:50;;;;;;;6.35;3.40;;;;;;;;;;4993850;28;20221;-74
2022/04/14 13:32:15;;;;;;;6.15;3.03;;;;;;;;;;4993001;28;20221;-75
2022/04/14 13:34:41;;;;;;;4.88;2.50;;;;;;;;;;4992505;28;20205;-73
2022/04/14 13:37:06;;;;;;;6.47;2.22;;;;;;;;;;4992722;28;20224;-71
2022/04/14 13:39:31;;;;;;;4.75;2.17;;;;;;;;;;4993491;28;20527;-72
2022/04/14 13:41:56;;;;;;;4.10;2.00;;;;;;;;;;4992827;28;20213;-76
2022/04/14 13:44:22;;;;;;;3.33;1.83;;;;;;;;;;4992774;28;20586;-75
2022/04/14 13:46:47;;;;;;;7.22;2.40;;;;;;;;;;4993246;28;20256;-74
2022/04/14 13:49:12;;;;;;;6.15;1.80;;;;;;;;;;4992038;28;20205;-76
2022/04/14 13:51:37;;;;;;;5.95;1.85;;;;;;;;;;4992993;28;20205;-74
2022/04/14 13:54:04;;;;;;;7.75;2.40;;;;;;;;;;4991561;28;20283;-73
2022/04/14 13:56:29;;;;;;;5.47;2.25;;;;;;;;;;4992305;28;20228;-74
2022/04/14 13:58:54;;;;;;;7.00;3.00;;;;;;;;;;4991870;28;20217;-75
2022/04/14 14:01:20;;;;;;;7.68;3.63;;;;;;;;;;4992667;28;20225;-72
2022/04/14 14:03:46;;;;;;;5.72;2.85;;;;;;;;;;4992230;28;20241;-76
2022/04/14 14:06:11;;;;;;;4.05;2.72;;;;;;;;;;4992350;28;20225;-75
2022/04/14 14:08:36;;;;;;;5.07;3.03;;;;;;;;;;4992673;28;20209;-72
2022/04/14 14:11:02;;;;;;;5.10;2.92;;;;;;;;;;4992049;28;20213;-71
2022/04/14 14:13:28;;;;;;;5.68;3.25;;;;;;;;;;4992963;28;20209;-73
2022/04/14 14:15:53;;;;;;;4.60;3.05;;;;;;;;;;4991826;28;20251;-71
2022/04/14 14:18:19;;;;;;;5.78;3.03;;;;;;;;;;4991677;28;20806;-74
2022/04/14 14:20:44;;;;;;;4.68;2.88;;;;;;;;;;4992536;28;20254;-71